sensor_id;sensor_type;location;lat;lon;timestamp;P1;durP1;ratioP1;P2;durP2;ratioP2
2756;SDS011;1386;50.862;6.494;2023-01-28T00:00:17;5.23;;;4.83;;
2756;SDS011;1386;50.862;6.494;2023-01-28T00:02:46;6.23;;;5.73;;
2756;SDS011;1386;50.862;6.494;2023-01-28T00:05:14;5.83;;;4.67;;
2756;SDS011;1386;50.862;6.494;2023-01-28T00:07:43;6.03;;;4.60;;
2756;SDS011;1386;50.862;6.494;2023-01-28T00:10:10;6.70;;;4.80;;
2756;SDS011;1386;50.862;6.494;2023-01-28T00:12:37;4.53;;;3.87;;
2756;SDS011;1386;50.862;6.494;2023-01-28T00:15:04;6.00;;;3.80;;
2756;SDS011;1386;50.862;6.494;2023-01-28T00:17:33;5.60;;;4.20;;
2756;SDS011;1386;50.862;6.494;2023-01-28T00:20:00;10.83;;;4.50;;
2756;SDS011;1386;50.862;6.494;2023-01-28T00:22:28;11.10;;;5.00;;
2756;SDS011;1386;50.862;6.494;2023-01-28T00:24:55;7.17;;;4.10;;
2756;SDS011;1386;50.862;6.494;2023-01-28T00:27:22;5.17;;;4.67;;
2756;SDS011;1386;50.862;6.494;2023-01-28T00:29:49;5.10;;;4.63;;
2756;SDS011;1386;50.862;6.494;2023-01-28T00:32:16;5.23;;;4.73;;
2756;SDS011;1386;50.862;6.494;2023-01-28T00:34:44;8.20;;;4.03;;
2756;SDS011;1386;50.862;6.494;2023-01-28T00:37:11;4.33;;;3.93;;
2756;SDS011;1386;50.862;6.494;2023-01-28T00:39:38;7.53;;;4.53;;
2756;SDS011;1386;50.862;6.494;2023-01-28T00:42:04;10.10;;;5.37;;
2756;SDS011;1386;50.862;6.494;2023-01-28T00:44:31;6.47;;;4.07;;
2756;SDS011;1386;50.862;6.494;2023-01-28T00:46:58;6.73;;;5.23;;
2756;SDS011;1386;50.862;6.494;2023-01-28T00:49:25;5.20;;;4.50;;
2756;SDS011;1386;50.862;6.494;2023-01-28T00:51:54;5.33;;;4.83;;
2756;SDS011;1386;50.862;6.494;2023-01-28T00:54:20;8.90;;;5.43;;
2756;SDS011;1386;50.862;6.494;2023-01-28T00:56:47;4.80;;;4.40;;
2756;SDS011;1386;50.862;6.494;2023-01-28T00:59:14;7.07;;;5.20;;
2756;SDS011;1386;50.862;6.494;2023-01-28T01:01:41;11.03;;;5.10;;
2756;SDS011;1386;50.862;6.494;2023-01-28T01:04:08;7.53;;;5.50;;
2756;SDS011;1386;50.862;6.494;2023-01-28T01:06:35;9.13;;;5.67;;
2756;SDS011;1386;50.862;6.494;2023-01-28T01:09:06;7.20;;;5.20;;
2756;SDS011;1386;50.862;6.494;2023-01-28T01:11:34;11.50;;;5.23;;
2756;SDS011;1386;50.862;6.494;2023-01-28T01:14:01;8.87;;;5.73;;
2756;SDS011;1386;50.862;6.494;2023-01-28T01:16:29;11.40;;;5.03;;
2756;SDS011;1386;50.862;6.494;2023-01-28T01:18:57;11.07;;;5.90;;
2756;SDS011;1386;50.862;6.494;2023-01-28T01:21:25;7.80;;;5.10;;
2756;SDS011;1386;50.862;6.494;2023-01-28T01:23:52;7.97;;;5.40;;
2756;SDS011;1386;50.862;6.494;2023-01-28T01:26:21;9.93;;;5.60;;
2756;SDS011;1386;50.862;6.494;2023-01-28T01:28:49;11.50;;;7.10;;
2756;SDS011;1386;50.862;6.494;2023-01-28T01:31:17;10.33;;;5.97;;
2756;SDS011;1386;50.862;6.494;2023-01-28T01:33:46;6.97;;;5.80;;
2756;SDS011;1386;50.862;6.494;2023-01-28T01:36:15;7.70;;;6.23;;
2756;SDS011;1386;50.862;6.494;2023-01-28T01:38:44;9.23;;;6.03;;
2756;SDS011;1386;50.862;6.494;2023-01-28T01:41:14;7.90;;;6.80;;
2756;SDS011;1386;50.862;6.494;2023-01-28T01:43:51;6.03;;;5.30;;
2756;SDS011;1386;50.862;6.494;2023-01-28T01:46:20;11.20;;;6.17;;
2756;SDS011;1386;50.862;6.494;2023-01-28T01:48:51;7.90;;;5.40;;
2756;SDS011;1386;50.862;6.494;2023-01-28T01:51:20;10.83;;;5.40;;
2756;SDS011;1386;50.862;6.494;2023-01-28T01:53:52;12.63;;;5.73;;
2756;SDS011;1386;50.862;6.494;2023-01-28T01:56:22;12.30;;;5.43;;
2756;SDS011;1386;50.862;6.494;2023-01-28T01:58:54;6.50;;;5.10;;
2756;SDS011;1386;50.862;6.494;2023-01-28T02:01:23;12.63;;;5.47;;
2756;SDS011;1386;50.862;6.494;2023-01-28T02:03:54;11.50;;;6.20;;
2756;SDS011;1386;50.862;6.494;2023-01-28T02:06:26;6.15;;;5.55;;
2756;SDS011;1386;50.862;6.494;2023-01-28T02:08:54;9.53;;;5.67;;
2756;SDS011;1386;50.862;6.494;2023-01-28T02:11:22;7.87;;;5.13;;
2756;SDS011;1386;50.862;6.494;2023-01-28T02:13:53;6.03;;;5.43;;
2756;SDS011;1386;50.862;6.494;2023-01-28T02:16:22;9.00;;;5.73;;
2756;SDS011;1386;50.862;6.494;2023-01-28T02:18:50;6.30;;;5.67;;
2756;SDS011;1386;50.862;6.494;2023-01-28T02:21:25;10.17;;;5.50;;
2756;SDS011;1386;50.862;6.494;2023-01-28T02:24:17;8.40;;;5.53;;
2756;SDS011;1386;50.862;6.494;2023-01-28T02:27:05;9.80;;;5.47;;
2756;SDS011;1386;50.862;6.494;2023-01-28T02:29:45;5.63;;;5.07;;
2756;SDS011;1386;50.862;6.494;2023-01-28T02:32:19;8.10;;;5.60;;
2756;SDS011;1386;50.862;6.494;2023-01-28T02:34:51;9.23;;;5.00;;
2756;SDS011;1386;50.862;6.494;2023-01-28T02:37:26;5.40;;;4.90;;
2756;SDS011;1386;50.862;6.494;2023-01-28T02:39:58;7.70;;;5.10;;
2756;SDS011;1386;50.862;6.494;2023-01-28T02:42:31;8.73;;;5.97;;
2756;SDS011;1386;50.862;6.494;2023-01-28T02:45:03;6.17;;;5.57;;
2756;SDS011;1386;50.862;6.494;2023-01-28T02:47:40;5.20;;;4.70;;
2756;SDS011;1386;50.862;6.494;2023-01-28T02:50:21;6.07;;;5.53;;
2756;SDS011;1386;50.862;6.494;2023-01-28T02:52:52;6.40;;;5.80;;
2756;SDS011;1386;50.862;6.494;2023-01-28T02:55:44;11.27;;;6.70;;
2756;SDS011;1386;50.862;6.494;2023-01-28T02:58:22;8.40;;;7.43;;
2756;SDS011;1386;50.862;6.494;2023-01-28T03:00:58;11.63;;;7.33;;
2756;SDS011;1386;50.862;6.494;2023-01-28T03:03:33;7.93;;;7.13;;
2756;SDS011;1386;50.862;6.494;2023-01-28T03:06:06;8.70;;;7.30;;
2756;SDS011;1386;50.862;6.494;2023-01-28T03:08:37;8.73;;;7.90;;
2756;SDS011;1386;50.862;6.494;2023-01-28T03:11:26;9.07;;;8.10;;
2756;SDS011;1386;50.862;6.494;2023-01-28T03:14:13;9.20;;;8.20;;
2756;SDS011;1386;50.862;6.494;2023-01-28T03:17:00;15.33;;;8.20;;
2756;SDS011;1386;50.862;6.494;2023-01-28T03:19:45;11.27;;;8.17;;
2756;SDS011;1386;50.862;6.494;2023-01-28T03:22:31;14.57;;;9.00;;
2756;SDS011;1386;50.862;6.494;2023-01-28T03:25:20;12.43;;;9.50;;
2756;SDS011;1386;50.862;6.494;2023-01-28T03:28:09;12.00;;;8.40;;
2756;SDS011;1386;50.862;6.494;2023-01-28T03:30:56;9.00;;;7.40;;
2756;SDS011;1386;50.862;6.494;2023-01-28T03:33:46;8.38;;;7.57;;
2756;SDS011;1386;50.862;6.494;2023-01-28T03:36:32;9.30;;;8.33;;
2756;SDS011;1386;50.862;6.494;2023-01-28T03:39:15;8.97;;;8.07;;
2756;SDS011;1386;50.862;6.494;2023-01-28T03:41:54;10.30;;;8.70;;
2756;SDS011;1386;50.862;6.494;2023-01-28T03:44:22;8.50;;;7.60;;
2756;SDS011;1386;50.862;6.494;2023-01-28T03:47:07;10.20;;;8.47;;
2756;SDS011;1386;50.862;6.494;2023-01-28T03:49:37;10.97;;;9.43;;
2756;SDS011;1386;50.862;6.494;2023-01-28T03:52:04;9.80;;;8.50;;
2756;SDS011;1386;50.862;6.494;2023-01-28T03:54:31;12.00;;;9.20;;
2756;SDS011;1386;50.862;6.494;2023-01-28T03:56:58;16.57;;;9.20;;
2756;SDS011;1386;50.862;6.494;2023-01-28T03:59:25;9.75;;;8.85;;
2756;SDS011;1386;50.862;6.494;2023-01-28T04:01:52;10.23;;;8.55;;
2756;SDS011;1386;50.862;6.494;2023-01-28T04:04:19;10.15;;;8.98;;
2756;SDS011;1386;50.862;6.494;2023-01-28T04:06:50;11.57;;;9.63;;
2756;SDS011;1386;50.862;6.494;2023-01-28T04:09:18;9.95;;;8.95;;
2756;SDS011;1386;50.862;6.494;2023-01-28T04:11:45;9.48;;;8.45;;
2756;SDS011;1386;50.862;6.494;2023-01-28T04:14:13;9.90;;;8.90;;
2756;SDS011;1386;50.862;6.494;2023-01-28T04:16:40;9.98;;;8.90;;
2756;SDS011;1386;50.862;6.494;2023-01-28T04:19:07;9.50;;;8.63;;
2756;SDS011;1386;50.862;6.494;2023-01-28T04:21:34;9.93;;;8.85;;
2756;SDS011;1386;50.862;6.494;2023-01-28T04:24:02;11.60;;;9.35;;
2756;SDS011;1386;50.862;6.494;2023-01-28T04:26:30;10.77;;;9.23;;
2756;SDS011;1386;50.862;6.494;2023-01-28T04:28:57;9.82;;;8.85;;
2756;SDS011;1386;50.862;6.494;2023-01-28T04:31:23;10.90;;;8.80;;
2756;SDS011;1386;50.862;6.494;2023-01-28T04:33:50;9.10;;;8.23;;
2756;SDS011;1386;50.862;6.494;2023-01-28T04:36:17;9.77;;;8.70;;
2756;SDS011;1386;50.862;6.494;2023-01-28T04:38:44;10.27;;;9.18;;
2756;SDS011;1386;50.862;6.494;2023-01-28T04:41:12;9.70;;;8.80;;
2756;SDS011;1386;50.862;6.494;2023-01-28T04:43:39;9.40;;;8.40;;
2756;SDS011;1386;50.862;6.494;2023-01-28T04:46:06;10.37;;;8.83;;
2756;SDS011;1386;50.862;6.494;2023-01-28T04:48:33;11.45;;;9.00;;
2756;SDS011;1386;50.862;6.494;2023-01-28T04:51:00;10.43;;;8.93;;
2756;SDS011;1386;50.862;6.494;2023-01-28T04:53:27;10.70;;;8.80;;
2756;SDS011;1386;50.862;6.494;2023-01-28T04:55:54;10.55;;;8.50;;
2756;SDS011;1386;50.862;6.494;2023-01-28T04:58:25;11.05;;;9.93;;
2756;SDS011;1386;50.862;6.494;2023-01-28T05:00:55;10.65;;;9.50;;
2756;SDS011;1386;50.862;6.494;2023-01-28T05:03:23;12.60;;;11.30;;
2756;SDS011;1386;50.862;6.494;2023-01-28T05:05:50;12.05;;;10.63;;
2756;SDS011;1386;50.862;6.494;2023-01-28T05:08:17;15.13;;;9.52;;
2756;SDS011;1386;50.862;6.494;2023-01-28T05:10:44;16.20;;;11.80;;
2756;SDS011;1386;50.862;6.494;2023-01-28T05:13:10;12.30;;;10.50;;
2756;SDS011;1386;50.862;6.494;2023-01-28T05:15:39;15.40;;;11.23;;
2756;SDS011;1386;50.862;6.494;2023-01-28T05:18:06;12.77;;;10.63;;
2756;SDS011;1386;50.862;6.494;2023-01-28T05:20:33;14.90;;;11.75;;
2756;SDS011;1386;50.862;6.494;2023-01-28T05:23:00;19.80;;;12.40;;
2756;SDS011;1386;50.862;6.494;2023-01-28T05:25:27;15.95;;;12.95;;
2756;SDS011;1386;50.862;6.494;2023-01-28T05:27:54;18.75;;;13.65;;
2756;SDS011;1386;50.862;6.494;2023-01-28T05:30:20;20.27;;;12.88;;
2756;SDS011;1386;50.862;6.494;2023-01-28T05:32:49;17.35;;;13.50;;
2756;SDS011;1386;50.862;6.494;2023-01-28T05:35:20;19.67;;;13.20;;
2756;SDS011;1386;50.862;6.494;2023-01-28T05:37:47;17.00;;;12.43;;
2756;SDS011;1386;50.862;6.494;2023-01-28T05:40:14;21.47;;;14.33;;
2756;SDS011;1386;50.862;6.494;2023-01-28T05:42:41;20.52;;;13.60;;
2756;SDS011;1386;50.862;6.494;2023-01-28T05:45:08;18.17;;;14.25;;
2756;SDS011;1386;50.862;6.494;2023-01-28T05:47:36;17.73;;;13.57;;
2756;SDS011;1386;50.862;6.494;2023-01-28T05:50:04;18.00;;;13.07;;
2756;SDS011;1386;50.862;6.494;2023-01-28T05:52:32;19.02;;;12.40;;
2756;SDS011;1386;50.862;6.494;2023-01-28T05:54:59;19.17;;;13.15;;
2756;SDS011;1386;50.862;6.494;2023-01-28T05:57:26;19.43;;;13.40;;
2756;SDS011;1386;50.862;6.494;2023-01-28T05:59:53;19.00;;;13.07;;
2756;SDS011;1386;50.862;6.494;2023-01-28T06:02:20;20.38;;;13.70;;
2756;SDS011;1386;50.862;6.494;2023-01-28T06:04:46;19.00;;;14.70;;
2756;SDS011;1386;50.862;6.494;2023-01-28T06:07:15;19.75;;;13.23;;
2756;SDS011;1386;50.862;6.494;2023-01-28T06:09:44;19.30;;;12.80;;
2756;SDS011;1386;50.862;6.494;2023-01-28T06:12:11;18.90;;;13.85;;
2756;SDS011;1386;50.862;6.494;2023-01-28T06:14:38;23.65;;;13.95;;
2756;SDS011;1386;50.862;6.494;2023-01-28T06:17:05;19.97;;;15.37;;
2756;SDS011;1386;50.862;6.494;2023-01-28T06:19:32;22.40;;;14.82;;
2756;SDS011;1386;50.862;6.494;2023-01-28T06:21:59;23.48;;;15.55;;
2756;SDS011;1386;50.862;6.494;2023-01-28T06:24:27;22.05;;;14.85;;
2756;SDS011;1386;50.862;6.494;2023-01-28T06:26:54;21.92;;;15.32;;
2756;SDS011;1386;50.862;6.494;2023-01-28T06:29:21;20.25;;;13.90;;
2756;SDS011;1386;50.862;6.494;2023-01-28T06:31:48;22.65;;;15.27;;
2756;SDS011;1386;50.862;6.494;2023-01-28T06:34:15;23.80;;;14.90;;
2756;SDS011;1386;50.862;6.494;2023-01-28T06:36:44;24.73;;;14.90;;
2756;SDS011;1386;50.862;6.494;2023-01-28T06:39:11;23.38;;;15.10;;
2756;SDS011;1386;50.862;6.494;2023-01-28T06:41:39;20.55;;;14.27;;
2756;SDS011;1386;50.862;6.494;2023-01-28T06:44:06;26.33;;;14.50;;
2756;SDS011;1386;50.862;6.494;2023-01-28T06:46:33;24.95;;;14.20;;
2756;SDS011;1386;50.862;6.494;2023-01-28T06:49:00;22.63;;;13.98;;
2756;SDS011;1386;50.862;6.494;2023-01-28T06:51:27;25.45;;;15.60;;
2756;SDS011;1386;50.862;6.494;2023-01-28T06:53:54;21.95;;;15.05;;
2756;SDS011;1386;50.862;6.494;2023-01-28T06:56:20;29.10;;;16.27;;
2756;SDS011;1386;50.862;6.494;2023-01-28T06:58:49;24.45;;;13.00;;
2756;SDS011;1386;50.862;6.494;2023-01-28T07:01:15;22.00;;;15.50;;
2756;SDS011;1386;50.862;6.494;2023-01-28T07:03:44;22.42;;;14.70;;
2756;SDS011;1386;50.862;6.494;2023-01-28T07:06:11;25.05;;;15.55;;
2756;SDS011;1386;50.862;6.494;2023-01-28T07:08:38;21.45;;;13.95;;
2756;SDS011;1386;50.862;6.494;2023-01-28T07:11:05;20.70;;;14.35;;
2756;SDS011;1386;50.862;6.494;2023-01-28T07:13:32;18.77;;;13.80;;
2756;SDS011;1386;50.862;6.494;2023-01-28T07:16:01;24.75;;;16.10;;
2756;SDS011;1386;50.862;6.494;2023-01-28T07:18:28;22.63;;;15.35;;
2756;SDS011;1386;50.862;6.494;2023-01-28T07:20:55;21.67;;;15.52;;
2756;SDS011;1386;50.862;6.494;2023-01-28T07:23:22;22.73;;;15.70;;
2756;SDS011;1386;50.862;6.494;2023-01-28T07:25:49;22.33;;;15.98;;
2756;SDS011;1386;50.862;6.494;2023-01-28T07:28:16;21.80;;;15.03;;
2756;SDS011;1386;50.862;6.494;2023-01-28T07:30:45;21.35;;;15.32;;
2756;SDS011;1386;50.862;6.494;2023-01-28T07:33:14;26.35;;;16.00;;
2756;SDS011;1386;50.862;6.494;2023-01-28T07:35:41;24.77;;;15.25;;
2756;SDS011;1386;50.862;6.494;2023-01-28T07:38:08;20.92;;;15.75;;
2756;SDS011;1386;50.862;6.494;2023-01-28T07:40:35;21.83;;;15.18;;
2756;SDS011;1386;50.862;6.494;2023-01-28T07:43:02;22.63;;;15.90;;
2756;SDS011;1386;50.862;6.494;2023-01-28T07:45:31;23.30;;;16.25;;
2756;SDS011;1386;50.862;6.494;2023-01-28T07:47:59;19.45;;;15.05;;
2756;SDS011;1386;50.862;6.494;2023-01-28T07:50:29;20.05;;;15.25;;
2756;SDS011;1386;50.862;6.494;2023-01-28T07:52:58;24.00;;;16.25;;
2756;SDS011;1386;50.862;6.494;2023-01-28T07:55:27;21.13;;;15.77;;
2756;SDS011;1386;50.862;6.494;2023-01-28T07:57:55;25.70;;;16.47;;
2756;SDS011;1386;50.862;6.494;2023-01-28T08:00:23;24.48;;;15.07;;
2756;SDS011;1386;50.862;6.494;2023-01-28T08:02:54;24.23;;;15.13;;
2756;SDS011;1386;50.862;6.494;2023-01-28T08:05:22;19.70;;;15.45;;
2756;SDS011;1386;50.862;6.494;2023-01-28T08:07:52;21.07;;;14.90;;
2756;SDS011;1386;50.862;6.494;2023-01-28T08:10:19;21.48;;;13.70;;
2756;SDS011;1386;50.862;6.494;2023-01-28T08:12:52;17.60;;;14.25;;
2756;SDS011;1386;50.862;6.494;2023-01-28T08:15:19;17.45;;;13.30;;
2756;SDS011;1386;50.862;6.494;2023-01-28T08:17:46;15.98;;;13.18;;
2756;SDS011;1386;50.862;6.494;2023-01-28T08:20:13;15.05;;;12.55;;
2756;SDS011;1386;50.862;6.494;2023-01-28T08:22:40;15.77;;;12.57;;
2756;SDS011;1386;50.862;6.494;2023-01-28T08:25:08;21.75;;;13.35;;
2756;SDS011;1386;50.862;6.494;2023-01-28T08:27:38;16.30;;;13.57;;
2756;SDS011;1386;50.862;6.494;2023-01-28T08:30:05;16.52;;;13.40;;
2756;SDS011;1386;50.862;6.494;2023-01-28T08:32:34;15.65;;;11.50;;
2756;SDS011;1386;50.862;6.494;2023-01-28T08:35:01;15.05;;;12.80;;
2756;SDS011;1386;50.862;6.494;2023-01-28T08:37:28;13.93;;;11.98;;
2756;SDS011;1386;50.862;6.494;2023-01-28T08:39:58;15.60;;;13.63;;
2756;SDS011;1386;50.862;6.494;2023-01-28T08:42:26;16.92;;;12.32;;
2756;SDS011;1386;50.862;6.494;2023-01-28T08:44:53;15.52;;;12.02;;
2756;SDS011;1386;50.862;6.494;2023-01-28T08:47:19;13.18;;;11.85;;
2756;SDS011;1386;50.862;6.494;2023-01-28T08:49:46;13.93;;;11.60;;
2756;SDS011;1386;50.862;6.494;2023-01-28T08:52:13;13.85;;;11.77;;
2756;SDS011;1386;50.862;6.494;2023-01-28T08:54:40;16.40;;;12.68;;
2756;SDS011;1386;50.862;6.494;2023-01-28T08:57:06;13.87;;;11.10;;
2756;SDS011;1386;50.862;6.494;2023-01-28T08:59:35;13.45;;;11.43;;
2756;SDS011;1386;50.862;6.494;2023-01-28T09:02:05;15.73;;;12.32;;
2756;SDS011;1386;50.862;6.494;2023-01-28T09:04:31;13.45;;;11.07;;
2756;SDS011;1386;50.862;6.494;2023-01-28T09:06:58;16.85;;;11.43;;
2756;SDS011;1386;50.862;6.494;2023-01-28T09:09:26;21.63;;;11.80;;
2756;SDS011;1386;50.862;6.494;2023-01-28T09:11:52;14.88;;;12.10;;
2756;SDS011;1386;50.862;6.494;2023-01-28T09:14:19;14.27;;;11.35;;
2756;SDS011;1386;50.862;6.494;2023-01-28T09:16:47;15.48;;;10.90;;
2756;SDS011;1386;50.862;6.494;2023-01-28T09:19:14;12.40;;;11.10;;
2756;SDS011;1386;50.862;6.494;2023-01-28T09:21:41;13.77;;;11.17;;
2756;SDS011;1386;50.862;6.494;2023-01-28T09:24:09;12.43;;;10.52;;
2756;SDS011;1386;50.862;6.494;2023-01-28T09:26:36;21.65;;;13.07;;
2756;SDS011;1386;50.862;6.494;2023-01-28T09:29:03;16.52;;;11.40;;
2756;SDS011;1386;50.862;6.494;2023-01-28T09:31:30;12.05;;;10.88;;
2756;SDS011;1386;50.862;6.494;2023-01-28T09:33:58;12.27;;;11.05;;
2756;SDS011;1386;50.862;6.494;2023-01-28T09:36:25;10.63;;;9.55;;
2756;SDS011;1386;50.862;6.494;2023-01-28T09:38:52;21.63;;;11.13;;
2756;SDS011;1386;50.862;6.494;2023-01-28T09:41:22;16.85;;;11.35;;
2756;SDS011;1386;50.862;6.494;2023-01-28T09:44:05;11.82;;;10.50;;
2756;SDS011;1386;50.862;6.494;2023-01-28T09:46:36;16.95;;;10.57;;
2756;SDS011;1386;50.862;6.494;2023-01-28T09:49:08;13.25;;;11.95;;
2756;SDS011;1386;50.862;6.494;2023-01-28T09:51:44;14.93;;;11.73;;
2756;SDS011;1386;50.862;6.494;2023-01-28T09:54:20;15.38;;;11.20;;
2756;SDS011;1386;50.862;6.494;2023-01-28T09:56:53;12.43;;;11.23;;
2756;SDS011;1386;50.862;6.494;2023-01-28T09:59:29;14.55;;;10.98;;
2756;SDS011;1386;50.862;6.494;2023-01-28T10:02:01;15.85;;;12.68;;
2756;SDS011;1386;50.862;6.494;2023-01-28T10:04:46;14.80;;;11.77;;
2756;SDS011;1386;50.862;6.494;2023-01-28T10:07:22;12.85;;;11.50;;
2756;SDS011;1386;50.862;6.494;2023-01-28T10:09:58;20.35;;;12.32;;
2756;SDS011;1386;50.862;6.494;2023-01-28T10:12:32;14.27;;;12.05;;
2756;SDS011;1386;50.862;6.494;2023-01-28T10:18:28;16.45;;;13.40;;
2756;SDS011;1386;50.862;6.494;2023-01-28T10:21:16;18.85;;;11.82;;
2756;SDS011;1386;50.862;6.494;2023-01-28T10:23:54;19.33;;;14.27;;
2756;SDS011;1386;50.862;6.494;2023-01-28T10:26:29;15.40;;;12.15;;
2756;SDS011;1386;50.862;6.494;2023-01-28T10:28:59;14.82;;;12.20;;
2756;SDS011;1386;50.862;6.494;2023-01-28T10:31:35;12.80;;;11.50;;
2756;SDS011;1386;50.862;6.494;2023-01-28T10:34:11;17.63;;;12.20;;
